sensor_id;sensor_type;location;lat;lon;timestamp;noise_LAeq;noise_LA_min;noise_LA_max;noise_LA01;noise_LA95
67320;Laerm;57665;51.436;5.978;2023-03-12T00:00:05;38.40;36.54;40.85;;
67320;Laerm;57665;51.436;5.978;2023-03-12T00:00:20;38.67;36.80;41.68;;
67320;Laerm;57665;51.436;5.978;2023-03-12T00:00:31;38.75;36.93;43.02;;
67320;Laerm;57665;51.436;5.978;2023-03-12T00:00:41;39.00;37.33;41.80;;
67320;Laerm;57665;51.436;5.978;2023-03-12T00:00:51;38.97;37.23;41.40;;
67320;Laerm;57665;51.436;5.978;2023-03-12T00:01:08;38.87;37.18;41.68;;
67320;Laerm;57665;51.436;5.978;2023-03-12T00:01:22;38.87;36.95;42.22;;
67320;Laerm;57665;51.436;5.978;2023-03-12T00:01:33;38.87;37.17;41.82;;
67320;Laerm;57665;51.436;5.978;2023-03-12T00:01:43;38.11;36.74;39.79;;
67320;Laerm;57665;51.436;5.978;2023-03-12T00:01:53;38.48;37.01;41.78;;
67320;Laerm;57665;51.436;5.978;2023-03-12T00:02:04;38.40;36.44;40.78;;
67320;Laerm;57665;51.436;5.978;2023-03-12T00:02:14;39.21;37.21;41.19;;
67320;Laerm;57665;51.436;5.978;2023-03-12T00:02:24;39.35;37.01;42.70;;
67320;Laerm;57665;51.436;5.978;2023-03-12T00:02:34;39.22;37.44;41.68;;
67320;Laerm;57665;51.436;5.978;2023-03-12T00:02:45;38.58;37.05;41.20;;
67320;Laerm;57665;51.436;5.978;2023-03-12T00:02:55;39.27;37.23;41.60;;
67320;Laerm;57665;51.436;5.978;2023-03-12T00:03:06;38.41;37.05;41.72;;
67320;Laerm;57665;51.436;5.978;2023-03-12T00:03:16;38.10;36.77;39.58;;
67320;Laerm;57665;51.436;5.978;2023-03-12T00:03:26;38.13;36.77;39.51;;
67320;Laerm;57665;51.436;5.978;2023-03-12T00:03:37;38.07;36.72;39.42;;
67320;Laerm;57665;51.436;5.978;2023-03-12T00:03:47;38.20;36.62;40.88;;
67320;Laerm;57665;51.436;5.978;2023-03-12T00:03:59;38.83;37.18;42.76;;
67320;Laerm;57665;51.436;5.978;2023-03-12T00:04:10;39.09;36.53;41.45;;
67320;Laerm;57665;51.436;5.978;2023-03-12T00:04:20;39.26;37.22;41.87;;
67320;Laerm;57665;51.436;5.978;2023-03-12T00:04:31;39.16;37.10;41.51;;
67320;Laerm;57665;51.436;5.978;2023-03-12T00:04:41;39.23;37.00;40.96;;
67320;Laerm;57665;51.436;5.978;2023-03-12T00:04:51;40.27;37.20;50.79;;
67320;Laerm;57665;51.436;5.978;2023-03-12T00:05:01;43.66;37.90;48.77;;
67320;Laerm;57665;51.436;5.978;2023-03-12T00:05:12;40.63;37.55;44.91;;
67320;Laerm;57665;51.436;5.978;2023-03-12T00:05:23;38.87;37.16;41.07;;
67320;Laerm;57665;51.436;5.978;2023-03-12T00:05:37;39.04;37.13;41.73;;
67320;Laerm;57665;51.436;5.978;2023-03-12T00:05:47;39.52;37.18;46.52;;
67320;Laerm;57665;51.436;5.978;2023-03-12T00:05:58;38.95;37.40;41.23;;
67320;Laerm;57665;51.436;5.978;2023-03-12T00:06:08;39.35;37.50;41.98;;
67320;Laerm;57665;51.436;5.978;2023-03-12T00:06:19;38.89;37.45;43.05;;
67320;Laerm;57665;51.436;5.978;2023-03-12T00:06:29;39.46;37.17;43.77;;
67320;Laerm;57665;51.436;5.978;2023-03-12T00:06:40;40.24;37.59;44.42;;
67320;Laerm;57665;51.436;5.978;2023-03-12T00:06:50;39.75;37.37;44.71;;
67320;Laerm;57665;51.436;5.978;2023-03-12T00:07:01;39.09;37.20;41.51;;
67320;Laerm;57665;51.436;5.978;2023-03-12T00:07:12;38.63;36.57;40.80;;
67320;Laerm;57665;51.436;5.978;2023-03-12T00:07:22;38.87;37.32;41.96;;
67320;Laerm;57665;51.436;5.978;2023-03-12T00:07:32;38.97;37.19;42.54;;
67320;Laerm;57665;51.436;5.978;2023-03-12T00:07:45;38.74;37.03;40.54;;
67320;Laerm;57665;51.436;5.978;2023-03-12T00:07:58;39.26;37.10;41.12;;
67320;Laerm;57665;51.436;5.978;2023-03-12T00:08:09;39.94;37.21;44.60;;
67320;Laerm;57665;51.436;5.978;2023-03-12T00:08:20;38.68;37.15;43.40;;
67320;Laerm;57665;51.436;5.978;2023-03-12T00:08:30;38.72;37.04;44.16;;
67320;Laerm;57665;51.436;5.978;2023-03-12T00:08:40;38.92;37.05;41.62;;
67320;Laerm;57665;51.436;5.978;2023-03-12T00:08:53;38.81;37.24;41.33;;
67320;Laerm;57665;51.436;5.978;2023-03-12T00:09:03;38.59;37.20;40.60;;
67320;Laerm;57665;51.436;5.978;2023-03-12T00:09:16;39.08;37.34;41.72;;
67320;Laerm;57665;51.436;5.978;2023-03-12T00:09:27;39.09;37.13;40.91;;
67320;Laerm;57665;51.436;5.978;2023-03-12T00:09:37;38.97;37.12;41.44;;
67320;Laerm;57665;51.436;5.978;2023-03-12T00:10:11;39.03;36.67;46.01;;
67320;Laerm;57665;51.436;5.978;2023-03-12T00:10:21;38.95;36.88;41.67;;
67320;Laerm;57665;51.436;5.978;2023-03-12T00:10:31;39.86;37.59;44.51;;
67320;Laerm;57665;51.436;5.978;2023-03-12T00:10:42;38.79;37.08;41.03;;
67320;Laerm;57665;51.436;5.978;2023-03-12T00:10:52;38.56;37.09;41.51;;
67320;Laerm;57665;51.436;5.978;2023-03-12T00:11:10;38.77;37.09;46.67;;
67320;Laerm;57665;51.436;5.978;2023-03-12T00:11:20;38.71;36.88;43.93;;
67320;Laerm;57665;51.436;5.978;2023-03-12T00:11:31;39.80;37.04;44.96;;
67320;Laerm;57665;51.436;5.978;2023-03-12T00:11:41;46.89;37.65;61.36;;
67320;Laerm;57665;51.436;5.978;2023-03-12T00:11:51;39.79;37.42;43.83;;
67320;Laerm;57665;51.436;5.978;2023-03-12T00:12:02;39.33;36.82;43.64;;
67320;Laerm;57665;51.436;5.978;2023-03-12T00:12:12;39.81;37.42;43.82;;
67320;Laerm;57665;51.436;5.978;2023-03-12T00:12:22;39.06;37.28;42.32;;
67320;Laerm;57665;51.436;5.978;2023-03-12T00:12:32;40.46;37.75;44.45;;
67320;Laerm;57665;51.436;5.978;2023-03-12T00:12:43;40.08;36.95;43.99;;
67320;Laerm;57665;51.436;5.978;2023-03-12T00:12:53;40.58;37.49;47.60;;
67320;Laerm;57665;51.436;5.978;2023-03-12T00:13:03;39.33;37.29;43.70;;
67320;Laerm;57665;51.436;5.978;2023-03-12T00:13:14;38.66;36.91;41.71;;
67320;Laerm;57665;51.436;5.978;2023-03-12T00:13:24;39.57;37.62;43.83;;
67320;Laerm;57665;51.436;5.978;2023-03-12T00:13:34;39.87;37.32;42.74;;
67320;Laerm;57665;51.436;5.978;2023-03-12T00:13:47;40.02;37.59;44.00;;
67320;Laerm;57665;51.436;5.978;2023-03-12T00:13:58;39.93;37.08;44.28;;
67320;Laerm;57665;51.436;5.978;2023-03-12T00:14:09;39.91;37.26;43.73;;
67320;Laerm;57665;51.436;5.978;2023-03-12T00:14:20;39.19;36.94;42.47;;
67320;Laerm;57665;51.436;5.978;2023-03-12T00:14:30;38.89;37.10;41.80;;
67320;Laerm;57665;51.436;5.978;2023-03-12T00:14:41;40.12;37.47;45.22;;
67320;Laerm;57665;51.436;5.978;2023-03-12T00:14:51;39.06;37.28;41.72;;
67320;Laerm;57665;51.436;5.978;2023-03-12T00:15:01;38.41;36.91;41.44;;
67320;Laerm;57665;51.436;5.978;2023-03-12T00:15:11;38.70;36.86;41.39;;
67320;Laerm;57665;51.436;5.978;2023-03-12T00:15:22;38.68;37.01;41.68;;
67320;Laerm;57665;51.436;5.978;2023-03-12T00:15:34;38.28;36.94;39.94;;
67320;Laerm;57665;51.436;5.978;2023-03-12T00:15:45;38.56;36.99;40.90;;
67320;Laerm;57665;51.436;5.978;2023-03-12T00:15:55;38.97;37.32;45.62;;
67320;Laerm;57665;51.436;5.978;2023-03-12T00:16:06;38.70;36.91;42.38;;
67320;Laerm;57665;51.436;5.978;2023-03-12T00:16:17;38.54;37.07;40.81;;
67320;Laerm;57665;51.436;5.978;2023-03-12T00:16:27;38.25;37.11;39.94;;
67320;Laerm;57665;51.436;5.978;2023-03-12T00:16:38;38.32;36.91;40.17;;
67320;Laerm;57665;51.436;5.978;2023-03-12T00:16:48;38.33;37.07;40.70;;
67320;Laerm;57665;51.436;5.978;2023-03-12T00:16:59;37.95;36.79;39.24;;
67320;Laerm;57665;51.436;5.978;2023-03-12T00:17:09;38.74;36.71;41.41;;
67320;Laerm;57665;51.436;5.978;2023-03-12T00:17:19;38.46;37.13;41.04;;
67320;Laerm;57665;51.436;5.978;2023-03-12T00:17:29;38.96;37.03;42.24;;
67320;Laerm;57665;51.436;5.978;2023-03-12T00:17:44;38.47;36.95;40.89;;
67320;Laerm;57665;51.436;5.978;2023-03-12T00:17:54;38.64;37.04;41.71;;
67320;Laerm;57665;51.436;5.978;2023-03-12T00:18:04;38.81;37.29;40.68;;
67320;Laerm;57665;51.436;5.978;2023-03-12T00:18:14;39.65;37.79;42.46;;
67320;Laerm;57665;51.436;5.978;2023-03-12T00:18:25;60.71;40.81;69.28;;
67320;Laerm;57665;51.436;5.978;2023-03-12T00:18:35;63.57;60.02;70.39;;
67320;Laerm;57665;51.436;5.978;2023-03-12T00:18:49;66.72;61.10;76.44;;
67320;Laerm;57665;51.436;5.978;2023-03-12T00:19:01;55.97;38.31;66.37;;
67320;Laerm;57665;51.436;5.978;2023-03-12T00:19:11;38.78;37.34;40.42;;
67320;Laerm;57665;51.436;5.978;2023-03-12T00:19:22;39.16;37.23;42.09;;
67320;Laerm;57665;51.436;5.978;2023-03-12T00:19:35;39.48;37.51;41.79;;
67320;Laerm;57665;51.436;5.978;2023-03-12T00:19:45;39.34;37.19;42.46;;
67320;Laerm;57665;51.436;5.978;2023-03-12T00:19:55;39.26;37.41;45.18;;
67320;Laerm;57665;51.436;5.978;2023-03-12T00:20:06;39.04;37.30;43.62;;
67320;Laerm;57665;51.436;5.978;2023-03-12T00:20:16;39.14;37.33;41.80;;
67320;Laerm;57665;51.436;5.978;2023-03-12T00:20:27;38.22;37.07;40.99;;
67320;Laerm;57665;51.436;5.978;2023-03-12T00:20:37;38.57;37.00;41.39;;
67320;Laerm;57665;51.436;5.978;2023-03-12T00:20:53;39.27;37.44;41.70;;
67320;Laerm;57665;51.436;5.978;2023-03-12T00:21:04;39.31;36.85;42.38;;
67320;Laerm;57665;51.436;5.978;2023-03-12T00:21:14;39.20;37.43;41.35;;
67320;Laerm;57665;51.436;5.978;2023-03-12T00:21:25;39.23;37.20;42.20;;
67320;Laerm;57665;51.436;5.978;2023-03-12T00:21:35;39.22;37.55;41.67;;
67320;Laerm;57665;51.436;5.978;2023-03-12T00:21:55;38.04;36.58;39.31;;
67320;Laerm;57665;51.436;5.978;2023-03-12T00:22:05;38.10;36.46;40.13;;
67320;Laerm;57665;51.436;5.978;2023-03-12T00:22:15;38.33;37.03;40.25;;
67320;Laerm;57665;51.436;5.978;2023-03-12T00:22:28;39.15;37.54;41.03;;
67320;Laerm;57665;51.436;5.978;2023-03-12T00:22:45;39.52;37.36;43.41;;
67320;Laerm;57665;51.436;5.978;2023-03-12T00:22:55;39.37;37.41;41.62;;
67320;Laerm;57665;51.436;5.978;2023-03-12T00:23:05;39.33;36.99;41.52;;
67320;Laerm;57665;51.436;5.978;2023-03-12T00:23:16;39.20;37.12;41.01;;
67320;Laerm;57665;51.436;5.978;2023-03-12T00:23:26;39.02;37.17;41.63;;
67320;Laerm;57665;51.436;5.978;2023-03-12T00:23:36;42.93;38.90;46.63;;
67320;Laerm;57665;51.436;5.978;2023-03-12T00:23:47;39.29;37.13;43.33;;
67320;Laerm;57665;51.436;5.978;2023-03-12T00:23:58;38.59;36.93;41.25;;
67320;Laerm;57665;51.436;5.978;2023-03-12T00:24:10;38.09;36.98;39.37;;
67320;Laerm;57665;51.436;5.978;2023-03-12T00:24:20;38.72;36.62;41.26;;
67320;Laerm;57665;51.436;5.978;2023-03-12T00:24:31;39.29;37.13;40.99;;
67320;Laerm;57665;51.436;5.978;2023-03-12T00:24:41;39.37;37.11;41.22;;
67320;Laerm;57665;51.436;5.978;2023-03-12T00:24:52;39.32;37.35;41.36;;
67320;Laerm;57665;51.436;5.978;2023-03-12T00:25:03;39.39;37.38;42.93;;
67320;Laerm;57665;51.436;5.978;2023-03-12T00:25:22;40.89;37.95;44.40;;
67320;Laerm;57665;51.436;5.978;2023-03-12T00:25:33;41.17;38.49;45.32;;
67320;Laerm;57665;51.436;5.978;2023-03-12T00:25:43;39.71;37.24;42.98;;
67320;Laerm;57665;51.436;5.978;2023-03-12T00:25:53;39.30;37.25;42.53;;
67320;Laerm;57665;51.436;5.978;2023-03-12T00:26:09;40.36;37.10;45.36;;
67320;Laerm;57665;51.436;5.978;2023-03-12T00:26:20;40.30;37.27;45.44;;
67320;Laerm;57665;51.436;5.978;2023-03-12T00:26:30;39.35;37.15;42.20;;
67320;Laerm;57665;51.436;5.978;2023-03-12T00:26:46;39.74;37.41;43.33;;
67320;Laerm;57665;51.436;5.978;2023-03-12T00:26:56;39.60;37.54;42.89;;
67320;Laerm;57665;51.436;5.978;2023-03-12T00:27:07;39.27;37.28;42.05;;
67320;Laerm;57665;51.436;5.978;2023-03-12T00:27:17;39.46;37.64;43.24;;
67320;Laerm;57665;51.436;5.978;2023-03-12T00:27:28;39.15;37.58;41.80;;
67320;Laerm;57665;51.436;5.978;2023-03-12T00:27:38;39.68;37.53;44.39;;
67320;Laerm;57665;51.436;5.978;2023-03-12T00:27:48;39.33;37.28;42.89;;
67320;Laerm;57665;51.436;5.978;2023-03-12T00:27:58;39.23;37.32;42.12;;
67320;Laerm;57665;51.436;5.978;2023-03-12T00:28:08;38.68;36.95;42.65;;
67320;Laerm;57665;51.436;5.978;2023-03-12T00:28:19;38.93;36.70;41.85;;
67320;Laerm;57665;51.436;5.978;2023-03-12T00:28:29;39.10;37.25;42.33;;
67320;Laerm;57665;51.436;5.978;2023-03-12T00:28:40;39.59;37.74;42.09;;
67320;Laerm;57665;51.436;5.978;2023-03-12T00:28:50;40.70;37.73;44.82;;
67320;Laerm;57665;51.436;5.978;2023-03-12T00:29:00;39.03;37.41;42.00;;
67320;Laerm;57665;51.436;5.978;2023-03-12T00:29:11;39.13;37.22;42.57;;
67320;Laerm;57665;51.436;5.978;2023-03-12T00:29:21;38.65;37.10;41.57;;
67320;Laerm;57665;51.436;5.978;2023-03-12T00:29:31;39.02;36.99;42.75;;
67320;Laerm;57665;51.436;5.978;2023-03-12T00:29:41;38.91;37.18;42.22;;
67320;Laerm;57665;51.436;5.978;2023-03-12T00:29:52;39.00;37.37;42.19;;
67320;Laerm;57665;51.436;5.978;2023-03-12T00:30:03;38.89;37.19;42.30;;
67320;Laerm;57665;51.436;5.978;2023-03-12T00:30:13;38.67;37.03;41.88;;
67320;Laerm;57665;51.436;5.978;2023-03-12T00:30:24;38.93;37.24;42.47;;
67320;Laerm;57665;51.436;5.978;2023-03-12T00:30:37;38.66;37.17;43.44;;
67320;Laerm;57665;51.436;5.978;2023-03-12T00:30:49;38.80;36.85;42.27;;
67320;Laerm;57665;51.436;5.978;2023-03-12T00:31:01;38.82;37.08;42.38;;
67320;Laerm;57665;51.436;5.978;2023-03-12T00:31:13;38.45;37.19;41.35;;
67320;Laerm;57665;51.436;5.978;2023-03-12T00:31:24;38.47;36.67;40.66;;
67320;Laerm;57665;51.436;5.978;2023-03-12T00:31:36;38.42;37.03;40.59;;
67320;Laerm;57665;51.436;5.978;2023-03-12T00:31:46;38.63;36.83;41.02;;
67320;Laerm;57665;51.436;5.978;2023-03-12T00:31:56;38.68;36.65;40.45;;
67320;Laerm;57665;51.436;5.978;2023-03-12T00:32:07;38.45;36.62;40.56;;
67320;Laerm;57665;51.436;5.978;2023-03-12T00:32:17;38.52;36.87;41.01;;
67320;Laerm;57665;51.436;5.978;2023-03-12T00:32:27;38.46;37.22;40.04;;
67320;Laerm;57665;51.436;5.978;2023-03-12T00:32:38;38.67;37.25;40.96;;
67320;Laerm;57665;51.436;5.978;2023-03-12T00:32:48;38.59;37.02;40.81;;
67320;Laerm;57665;51.436;5.978;2023-03-12T00:32:58;38.42;37.19;40.20;;
67320;Laerm;57665;51.436;5.978;2023-03-12T00:33:09;38.52;37.05;40.37;;
67320;Laerm;57665;51.436;5.978;2023-03-12T00:33:19;38.43;36.92;40.15;;
67320;Laerm;57665;51.436;5.978;2023-03-12T00:33:30;38.37;36.86;40.04;;
67320;Laerm;57665;51.436;5.978;2023-03-12T00:33:40;38.37;37.03;41.45;;
67320;Laerm;57665;51.436;5.978;2023-03-12T00:33:50;38.15;36.90;39.61;;
67320;Laerm;57665;51.436;5.978;2023-03-12T00:34:01;38.28;36.68;40.01;;
67320;Laerm;57665;51.436;5.978;2023-03-12T00:34:11;38.59;36.63;41.20;;
67320;Laerm;57665;51.436;5.978;2023-03-12T00:34:21;38.65;36.93;40.19;;
67320;Laerm;57665;51.436;5.978;2023-03-12T00:34:32;38.72;37.22;40.87;;
67320;Laerm;57665;51.436;5.978;2023-03-12T00:34:42;38.44;36.92;42.58;;
67320;Laerm;57665;51.436;5.978;2023-03-12T00:34:53;38.37;36.77;41.14;;
67320;Laerm;57665;51.436;5.978;2023-03-12T00:35:04;38.41;36.74;41.54;;
67320;Laerm;57665;51.436;5.978;2023-03-12T00:35:14;38.69;37.12;41.04;;
67320;Laerm;57665;51.436;5.978;2023-03-12T00:35:25;38.72;37.07;41.59;;
67320;Laerm;57665;51.436;5.978;2023-03-12T00:35:36;38.70;37.21;41.70;;
67320;Laerm;57665;51.436;5.978;2023-03-12T00:35:50;38.50;36.81;41.52;;
67320;Laerm;57665;51.436;5.978;2023-03-12T00:36:01;38.52;37.16;41.26;;
67320;Laerm;57665;51.436;5.978;2023-03-12T00:36:11;38.58;37.01;40.62;;
67320;Laerm;57665;51.436;5.978;2023-03-12T00:36:22;38.78;37.10;41.45;;
67320;Laerm;57665;51.436;5.978;2023-03-12T00:36:33;38.68;37.14;41.22;;
67320;Laerm;57665;51.436;5.978;2023-03-12T00:36:44;38.21;36.72;40.75;;
67320;Laerm;57665;51.436;5.978;2023-03-12T00:36:54;38.14;36.86;39.64;;
67320;Laerm;57665;51.436;5.978;2023-03-12T00:37:04;38.69;37.04;41.32;;
67320;Laerm;57665;51.436;5.978;2023-03-12T00:37:15;38.72;37.22;41.43;;
67320;Laerm;57665;51.436;5.978;2023-03-12T00:37:25;38.38;36.86;41.31;;
67320;Laerm;57665;51.436;5.978;2023-03-12T00:37:36;38.82;37.09;41.45;;
67320;Laerm;57665;51.436;5.978;2023-03-12T00:37:46;38.94;37.32;42.17;;
67320;Laerm;57665;51.436;5.978;2023-03-12T00:37:57;38.84;37.26;41.54;;
67320;Laerm;57665;51.436;5.978;2023-03-12T00:38:07;38.85;37.36;41.02;;
67320;Laerm;57665;51.436;5.978;2023-03-12T00:38:17;38.87;37.37;40.70;;
67320;Laerm;57665;51.436;5.978;2023-03-12T00:38:28;39.02;37.48;42.14;;
67320;Laerm;57665;51.436;5.978;2023-03-12T00:38:38;43.16;38.01;51.75;;
67320;Laerm;57665;51.436;5.978;2023-03-12T00:38:48;40.58;37.41;46.13;;
67320;Laerm;57665;51.436;5.978;2023-03-12T00:38:59;39.02;37.28;41.62;;
67320;Laerm;57665;51.436;5.978;2023-03-12T00:39:10;38.84;37.07;40.99;;
67320;Laerm;57665;51.436;5.978;2023-03-12T00:39:20;38.84;37.08;41.72;;
67320;Laerm;57665;51.436;5.978;2023-03-12T00:39:30;38.91;37.17;42.92;;
67320;Laerm;57665;51.436;5.978;2023-03-12T00:39:41;39.14;37.35;42.49;;
67320;Laerm;57665;51.436;5.978;2023-03-12T00:39:51;39.21;37.22;42.23;;
67320;Laerm;57665;51.436;5.978;2023-03-12T00:40:02;39.02;37.29;41.83;;
67320;Laerm;57665;51.436;5.978;2023-03-12T00:40:14;39.69;37.78;42.80;;
67320;Laerm;57665;51.436;5.978;2023-03-12T00:40:25;41.64;38.14;45.65;;
67320;Laerm;57665;51.436;5.978;2023-03-12T00:40:35;39.65;37.48;51.64;;
67320;Laerm;57665;51.436;5.978;2023-03-12T00:40:45;38.41;36.90;40.20;;
67320;Laerm;57665;51.436;5.978;2023-03-12T00:40:55;38.27;37.08;39.61;;
67320;Laerm;57665;51.436;5.978;2023-03-12T00:41:05;38.48;36.84;41.63;;
67320;Laerm;57665;51.436;5.978;2023-03-12T00:41:16;38.79;37.06;41.93;;
67320;Laerm;57665;51.436;5.978;2023-03-12T00:41:28;39.03;37.38;41.76;;
67320;Laerm;57665;51.436;5.978;2023-03-12T00:41:39;38.86;36.79;42.00;;
67320;Laerm;57665;51.436;5.978;2023-03-12T00:41:49;39.32;37.53;41.76;;
67320;Laerm;57665;51.436;5.978;2023-03-12T00:42:00;40.15;37.38;45.82;;
67320;Laerm;57665;51.436;5.978;2023-03-12T00:42:10;39.60;37.25;44.46;;
67320;Laerm;57665;51.436;5.978;2023-03-12T00:42:20;39.09;37.24;42.08;;
67320;Laerm;57665;51.436;5.978;2023-03-12T00:42:33;40.07;37.45;48.39;;
67320;Laerm;57665;51.436;5.978;2023-03-12T00:42:44;39.06;37.38;44.13;;
67320;Laerm;57665;51.436;5.978;2023-03-12T00:42:54;41.16;37.30;52.48;;
67320;Laerm;57665;51.436;5.978;2023-03-12T00:43:04;39.29;37.01;44.91;;
67320;Laerm;57665;51.436;5.978;2023-03-12T00:43:14;38.61;36.98;40.83;;
67320;Laerm;57665;51.436;5.978;2023-03-12T00:43:24;39.18;37.40;42.42;;
67320;Laerm;57665;51.436;5.978;2023-03-12T00:43:35;39.67;37.16;46.67;;
67320;Laerm;57665;51.436;5.978;2023-03-12T00:43:45;39.07;37.08;42.30;;
67320;Laerm;57665;51.436;5.978;2023-03-12T00:43:56;39.38;37.63;42.14;;
67320;Laerm;57665;51.436;5.978;2023-03-12T00:44:06;39.25;37.37;42.34;;
67320;Laerm;57665;51.436;5.978;2023-03-12T00:44:16;38.91;37.20;43.67;;
67320;Laerm;57665;51.436;5.978;2023-03-12T00:44:27;39.24;37.35;43.09;;
67320;Laerm;57665;51.436;5.978;2023-03-12T00:44:37;39.56;37.57;47.54;;
67320;Laerm;57665;51.436;5.978;2023-03-12T00:44:47;38.73;36.85;42.16;;
67320;Laerm;57665;51.436;5.978;2023-03-12T00:44:57;40.54;37.75;45.41;;
67320;Laerm;57665;51.436;5.978;2023-03-12T00:45:08;40.08;38.46;42.94;;
67320;Laerm;57665;51.436;5.978;2023-03-12T00:45:21;43.18;38.37;53.74;;
67320;Laerm;57665;51.436;5.978;2023-03-12T00:45:31;47.25;40.43;57.59;;
67320;Laerm;57665;51.436;5.978;2023-03-12T00:45:41;49.55;41.58;56.60;;
67320;Laerm;57665;51.436;5.978;2023-03-12T00:45:52;65.87;50.10;72.26;;
67320;Laerm;57665;51.436;5.978;2023-03-12T00:46:02;66.79;63.04;72.67;;
67320;Laerm;57665;51.436;5.978;2023-03-12T00:46:13;62.93;40.02;70.57;;
67320;Laerm;57665;51.436;5.978;2023-03-12T00:46:23;40.97;39.36;43.33;;
67320;Laerm;57665;51.436;5.978;2023-03-12T00:46:33;40.46;38.26;43.72;;
67320;Laerm;57665;51.436;5.978;2023-03-12T00:46:43;40.24;38.34;43.03;;
67320;Laerm;57665;51.436;5.978;2023-03-12T00:46:53;39.99;37.72;42.54;;
67320;Laerm;57665;51.436;5.978;2023-03-12T00:47:04;40.15;38.01;43.71;;
67320;Laerm;57665;51.436;5.978;2023-03-12T00:47:14;42.32;37.46;45.89;;
67320;Laerm;57665;51.436;5.978;2023-03-12T00:47:24;40.21;37.47;43.78;;
67320;Laerm;57665;51.436;5.978;2023-03-12T00:47:35;39.56;37.47;45.49;;
67320;Laerm;57665;51.436;5.978;2023-03-12T00:47:45;39.23;37.59;42.56;;
67320;Laerm;57665;51.436;5.978;2023-03-12T00:47:55;39.94;37.44;43.84;;
67320;Laerm;57665;51.436;5.978;2023-03-12T00:48:05;41.14;37.44;46.30;;
67320;Laerm;57665;51.436;5.978;2023-03-12T00:48:15;39.00;37.57;43.46;;
67320;Laerm;57665;51.436;5.978;2023-03-12T00:48:26;39.57;37.76;42.30;;
67320;Laerm;57665;51.436;5.978;2023-03-12T00:48:39;39.61;37.50;43.01;;
67320;Laerm;57665;51.436;5.978;2023-03-12T00:48:49;39.39;37.29;42.52;;
67320;Laerm;57665;51.436;5.978;2023-03-12T00:49:00;39.63;37.71;42.70;;
67320;Laerm;57665;51.436;5.978;2023-03-12T00:49:10;39.62;37.56;42.12;;
67320;Laerm;57665;51.436;5.978;2023-03-12T00:49:20;38.93;37.19;41.77;;
67320;Laerm;57665;51.436;5.978;2023-03-12T00:49:30;38.19;37.22;39.49;;
67320;Laerm;57665;51.436;5.978;2023-03-12T00:49:41;38.38;36.85;41.47;;
67320;Laerm;57665;51.436;5.978;2023-03-12T00:49:51;39.68;37.16;44.28;;
67320;Laerm;57665;51.436;5.978;2023-03-12T00:50:01;39.98;37.49;43.86;;
67320;Laerm;57665;51.436;5.978;2023-03-12T00:50:12;38.82;37.45;40.63;;
67320;Laerm;57665;51.436;5.978;2023-03-12T00:50:22;40.12;37.61;43.89;;
67320;Laerm;57665;51.436;5.978;2023-03-12T00:50:35;40.47;38.24;44.08;;
67320;Laerm;57665;51.436;5.978;2023-03-12T00:50:46;65.64;41.60;71.74;;
67320;Laerm;57665;51.436;5.978;2023-03-12T00:50:56;66.89;64.72;70.19;;
67320;Laerm;57665;51.436;5.978;2023-03-12T00:51:06;66.23;52.16;71.10;;
67320;Laerm;57665;51.436;5.978;2023-03-12T00:51:16;46.68;39.76;54.46;;
67320;Laerm;57665;51.436;5.978;2023-03-12T00:51:27;40.89;38.41;44.18;;
67320;Laerm;57665;51.436;5.978;2023-03-12T00:51:37;39.85;37.51;44.23;;
67320;Laerm;57665;51.436;5.978;2023-03-12T00:51:47;39.87;37.63;43.32;;
67320;Laerm;57665;51.436;5.978;2023-03-12T00:51:57;40.07;38.01;44.00;;
67320;Laerm;57665;51.436;5.978;2023-03-12T00:52:08;40.11;37.25;44.23;;
67320;Laerm;57665;51.436;5.978;2023-03-12T00:52:20;40.50;37.71;44.46;;
67320;Laerm;57665;51.436;5.978;2023-03-12T00:52:31;39.63;37.12;43.45;;
67320;Laerm;57665;51.436;5.978;2023-03-12T00:52:44;39.21;36.99;43.08;;
67320;Laerm;57665;51.436;5.978;2023-03-12T00:52:57;39.92;37.24;44.57;;
67320;Laerm;57665;51.436;5.978;2023-03-12T00:53:07;40.13;37.72;44.65;;
67320;Laerm;57665;51.436;5.978;2023-03-12T00:53:17;39.00;37.31;42.10;;
67320;Laerm;57665;51.436;5.978;2023-03-12T00:53:28;39.00;37.37;41.79;;
67320;Laerm;57665;51.436;5.978;2023-03-12T00:53:38;38.92;37.35;44.12;;
67320;Laerm;57665;51.436;5.978;2023-03-12T00:53:48;40.49;38.10;45.26;;
67320;Laerm;57665;51.436;5.978;2023-03-12T00:53:59;40.63;37.27;44.61;;
67320;Laerm;57665;51.436;5.978;2023-03-12T00:54:09;40.36;37.71;44.62;;
67320;Laerm;57665;51.436;5.978;2023-03-12T00:54:19;40.65;38.09;44.38;;
67320;Laerm;57665;51.436;5.978;2023-03-12T00:54:30;39.76;37.71;41.99;;
67320;Laerm;57665;51.436;5.978;2023-03-12T00:54:40;42.57;37.62;49.90;;
67320;Laerm;57665;51.436;5.978;2023-03-12T00:54:50;39.62;37.67;42.72;;
67320;Laerm;57665;51.436;5.978;2023-03-12T00:55:01;39.46;37.06;44.51;;
67320;Laerm;57665;51.436;5.978;2023-03-12T00:55:11;40.18;37.90;45.25;;
67320;Laerm;57665;51.436;5.978;2023-03-12T00:55:21;40.56;37.92;45.16;;
67320;Laerm;57665;51.436;5.978;2023-03-12T00:55:44;40.11;37.46;44.83;;
67320;Laerm;57665;51.436;5.978;2023-03-12T00:55:54;39.48;37.40;44.15;;
67320;Laerm;57665;51.436;5.978;2023-03-12T00:56:05;38.83;37.23;41.23;;
67320;Laerm;57665;51.436;5.978;2023-03-12T00:56:16;38.90;37.54;41.31;;
67320;Laerm;57665;51.436;5.978;2023-03-12T00:56:26;40.04;36.82;43.47;;
67320;Laerm;57665;51.436;5.978;2023-03-12T00:56:36;39.94;37.52;43.25;;
67320;Laerm;57665;51.436;5.978;2023-03-12T00:56:47;38.85;37.39;40.60;;
67320;Laerm;57665;51.436;5.978;2023-03-12T00:57:00;38.71;37.04;40.72;;
67320;Laerm;57665;51.436;5.978;2023-03-12T00:57:10;38.47;37.31;39.87;;
67320;Laerm;57665;51.436;5.978;2023-03-12T00:57:20;38.38;37.11;40.42;;
67320;Laerm;57665;51.436;5.978;2023-03-12T00:57:30;38.40;37.13;40.26;;
67320;Laerm;57665;51.436;5.978;2023-03-12T00:57:40;39.04;36.95;42.57;;
67320;Laerm;57665;51.436;5.978;2023-03-12T00:57:51;39.48;37.17;43.55;;
67320;Laerm;57665;51.436;5.978;2023-03-12T00:58:01;39.80;36.94;45.63;;
67320;Laerm;57665;51.436;5.978;2023-03-12T00:58:11;38.87;37.16;43.67;;
67320;Laerm;57665;51.436;5.978;2023-03-12T00:58:24;39.80;37.49;42.53;;
67320;Laerm;57665;51.436;5.978;2023-03-12T00:58:34;40.15;37.78;44.34;;
67320;Laerm;57665;51.436;5.978;2023-03-12T00:58:45;40.21;37.13;44.70;;
67320;Laerm;57665;51.436;5.978;2023-03-12T00:58:55;40.19;38.00;43.52;;
67320;Laerm;57665;51.436;5.978;2023-03-12T00:59:05;40.53;37.27;45.69;;
67320;Laerm;57665;51.436;5.978;2023-03-12T00:59:16;40.24;37.19;44.82;;
67320;Laerm;57665;51.436;5.978;2023-03-12T00:59:26;40.29;37.62;45.93;;
67320;Laerm;57665;51.436;5.978;2023-03-12T00:59:36;40.43;37.60;43.22;;
67320;Laerm;57665;51.436;5.978;2023-03-12T00:59:49;39.90;37.10;43.79;;
67320;Laerm;57665;51.436;5.978;2023-03-12T00:59:59;40.40;37.85;45.23;;
67320;Laerm;57665;51.436;5.978;2023-03-12T01:00:10;40.71;38.17;45.24;;
67320;Laerm;57665;51.436;5.978;2023-03-12T01:00:20;41.56;37.79;47.84;;
67320;Laerm;57665;51.436;5.978;2023-03-12T01:00:31;39.95;37.49;45.66;;
67320;Laerm;57665;51.436;5.978;2023-03-12T01:00:41;39.65;37.34;44.75;;
67320;Laerm;57665;51.436;5.978;2023-03-12T01:00:51;38.77;37.14;40.34;;
67320;Laerm;57665;51.436;5.978;2023-03-12T01:01:02;39.62;37.59;44.33;;